Airfield :
LOGIN :

Register | Disclaimer

   EN    FR    IT 

 










Legend :    VFR   Marginal VFR   IFR   Intensive IFR   Very Intensive IFR
Visi :
Ceiling :
>= 8 km
>= 3000ft
5 to 8 km
1000 to 3000 ft
1500m to 5 km
500 to 1000 ft
800 to 1500m
200 to 500 ft
< 800m
< 200 ft
Symbols :   Thunderstorms  Fog  Heavy snow  Heavy precipitations  Wind > 20 kt
SIGMETs :     Misc.  Thunderstorms  Icing  Turbulence  Mountain Waves  Volcanic Ashes






- Airport Elevation : 614 ft
- IATA code : CRL


EBCI - Charleroi

CURRENT METAR :
  • 100920Z 19009KT CAVOK 02/00 Q1025 NOSIG

EXPIRED METARs :
  • 100850Z 20010KT CAVOK 02/00 Q1026 NOSIG
  • 100820Z 20009KT CAVOK 01/M00 Q1026 NOSIG
  • 100750Z 20007KT CAVOK 01/M01 Q1026 NOSIG
  • 100720Z 19008KT CAVOK 00/M01 Q1026 NOSIG

TAF TAF EBCI
Valid from the 10 at 06:00 until the 11 at 12:00 UTC


100500Z 1006/1112 20007KT CAVOK
BECMG 1017/1019 19017G28KT
BECMG 1100/1102 20016KT SCT008 BKN012
TEMPO 1104/1109 4500 RA BKN007
BECMG 1108/1111 23006KT 8000 NSW SCT015 SCT035



MET'MAP, your aeronautical weather chart ! - Copyright ORBIFLY December 2007 - Disclaimer

ORBIFLY MET'MAP TEAM :

Programming & Development : Alexandra Zaïnal
Concept & original design : Baudouin d'Aumeries
Assistance for programming : Marc-Olivier Méhu
Technical & hardware support : Manuel Goepfert

Contact : metmap@orbifly.com




SOURCES & CREDITS :

   NOAA